Terminal Aerodrome Forecast
Issued by NWS

Home | Current Version | Previous Version | Text Only | Print | Product List | Glossary On
Versions: 1 2 3 4 5 6 7 8 9 10 11 12
000
FTUS44 KLZK 221141
TAFPBF
TAF
KPBF 221141Z 2212/2312 11009KT P6SM VCSH SCT007 OVC020
      TEMPO 2212/2215 5SM BR BKN007
     FM221500 11010G18KT P6SM VCSH OVC015
     FM222000 12012G20KT P6SM -SHRA OVC020
     FM230200 13010G18KT 5SM SHRA BR VCTS SCT007 OVC015CB
     FM230800 13010G18KT 4SM SHRA BR VCTS OVC007CB=

USA.gov is the U.S. government's official web portal to all federal, state and local government web resources and services.